Time;durP1;ratioP1;P1;durP2;ratioP2;P2;SDS_P1;SDS_P2;PMS_P1;PMS_P2;Temp;Humidity;BMP_temperature;BMP_pressure;BME280_temperature;BME280_humidity;BME280_pressure;Samples;Min_cycle;Max_cycle;Signal;HPM_P1;HPM_P2
2022/06/09 00:00:03;;;;;;;67.63;48.65;;;;;;;19.36;70.46;100228.66;4995005;28;119892;-80
2022/06/09 00:02:31;;;;;;;72.22;50.40;;;;;;;19.39;70.71;100239.50;4991349;28;120244;-80
2022/06/09 00:04:58;;;;;;;71.50;50.35;;;;;;;19.41;70.53;100236.97;4974578;28;119771;-79
2022/06/09 00:07:26;;;;;;;71.78;49.28;;;;;;;19.33;70.39;100231.22;4988165;28;119665;-80
2022/06/09 00:10:04;;;;;;;67.05;47.75;;;;;;;19.36;70.63;100234.25;4995095;28;120258;-79
2022/06/09 00:12:30;;;;;;;73.40;49.90;;;;;;;19.37;70.87;100235.75;5009607;28;118726;-80
2022/06/09 00:14:57;;;;;;;70.60;48.70;;;;;;;19.30;70.51;100237.84;5010077;28;119750;-80
2022/06/09 00:17:27;;;;;;;68.60;48.65;;;;;;;19.38;70.55;100243.56;5000452;28;119438;-80
2022/06/09 00:19:52;;;;;;;74.90;50.28;;;;;;;19.32;70.41;100240.84;4992375;28;119577;-79
2022/06/09 00:22:18;;;;;;;69.70;48.90;;;;;;;19.38;70.81;100246.34;4984842;28;119513;-80
2022/06/09 00:24:44;;;;;;;67.65;47.13;;;;;;;19.33;70.92;100239.56;4993434;28;119722;-80
2022/06/09 00:27:10;;;;;;;69.07;46.13;;;;;;;19.37;70.71;100242.06;4987329;28;119959;-80
2022/06/09 00:29:36;;;;;;;72.05;46.63;;;;;;;19.38;70.79;100246.34;4992869;28;121736;-80
2022/06/09 00:32:02;;;;;;;66.55;45.63;;;;;;;19.38;70.40;100240.78;4985373;28;119551;-80
2022/06/09 00:34:28;;;;;;;63.42;44.35;;;;;;;19.37;70.70;100241.31;4988461;28;120827;-80
2022/06/09 00:36:53;;;;;;;70.63;46.90;;;;;;;19.37;70.76;100246.88;4991587;28;120068;-79
2022/06/09 00:39:19;;;;;;;65.63;45.20;;;;;;;19.38;70.57;100260.25;5000505;28;119827;-79
2022/06/09 00:41:45;;;;;;;64.93;46.28;;;;;;;19.37;70.64;100250.41;4988956;28;120953;-80
2022/06/09 00:44:26;;;;;;;68.75;47.20;;;;;;;19.36;70.81;100240.56;4991426;28;119729;-79
2022/06/09 00:47:01;;;;;;;63.47;44.63;;;;;;;19.36;70.74;100251.66;4996781;28;119503;-79
2022/06/09 00:50:01;;;;;;;71.85;48.58;;;;;;;19.35;70.77;100250.16;4999848;28;119548;-79
2022/06/09 00:52:36;;;;;;;67.60;46.55;;;;;;;19.33;70.80;100249.94;4981271;28;119653;-80
2022/06/09 00:55:11;;;;;;;69.68;46.30;;;;;;;19.23;70.88;100232.09;4981201;28;119826;-80
2022/06/09 00:57:47;;;;;;;68.80;47.80;;;;;;;19.32;70.78;100242.88;4979502;28;120809;-78
2022/06/09 01:00:21;;;;;;;73.47;48.42;;;;;;;19.30;70.92;100243.41;5000697;28;119674;-80
2022/06/09 01:02:48;;;;;;;67.35;46.83;;;;;;;19.31;70.83;100244.16;4980221;28;120668;-79
2022/06/09 01:05:17;;;;;;;71.95;47.25;;;;;;;19.28;70.91;100245.19;4979175;28;119869;-80
2022/06/09 01:07:50;;;;;;;74.78;49.97;;;;;;;19.25;70.97;100235.13;4997219;28;119465;-78
2022/06/09 01:10:16;;;;;;;76.90;50.43;;;;;;;19.29;70.78;100243.91;4998318;28;119455;-80
2022/06/09 01:12:45;;;;;;;70.22;47.33;;;;;;;19.27;70.79;100246.47;4981051;28;119790;-79
2022/06/09 01:15:18;;;;;;;74.57;50.10;;;;;;;19.24;71.06;100239.19;4979460;28;119427;-78
2022/06/09 01:17:53;;;;;;;71.73;49.30;;;;;;;19.27;70.63;100241.66;4985623;28;121224;-80
2022/06/09 01:20:28;;;;;;;76.57;51.03;;;;;;;19.27;70.80;100247.22;4996378;28;119454;-78
2022/06/09 01:23:00;;;;;;;79.25;52.20;;;;;;;19.27;71.04;100246.47;4998260;28;120098;-80
2022/06/09 01:25:32;;;;;;;75.72;51.10;;;;;;;19.27;70.98;100243.69;4996998;28;119990;-78
2022/06/09 01:28:19;;;;;;;73.22;49.83;;;;;;;19.27;70.92;100246.47;4990598;28;120311;-79
2022/06/09 01:30:46;;;;;;;78.55;52.20;;;;;;;19.25;70.97;100241.44;5002686;28;122324;-78
2022/06/09 01:33:30;;;;;;;83.35;51.28;;;;;;;19.26;71.16;100247.75;4975247;28;119878;-78
2022/06/09 01:36:11;;;;;;;78.30;50.45;;;;;;;19.24;70.75;100239.94;4943823;28;120531;-79
2022/06/09 01:38:48;;;;;;;79.47;52.47;;;;;;;19.25;70.97;100246.25;4978867;28;121593;-79
2022/06/09 01:41:15;;;;;;;72.30;50.15;;;;;;;19.18;71.01;100230.16;4981329;28;119468;-79
2022/06/09 01:43:43;;;;;;;86.15;52.88;;;;;;;19.25;70.97;100246.25;4998584;28;121424;-80
2022/06/09 01:46:15;;;;;;;74.45;49.00;;;;;;;19.22;71.28;100234.13;4992666;28;119478;-81
2022/06/09 01:48:41;;;;;;;86.95;54.05;;;;;;;19.26;71.22;100244.97;4975739;28;119876;-80
2022/06/09 01:51:12;;;;;;;77.20;50.00;;;;;;;19.25;71.14;100235.13;4975414;28;120877;-81
2022/06/09 01:53:47;;;;;;;85.95;54.42;;;;;;;19.25;70.86;100237.91;4976973;28;119770;-81
2022/06/09 01:56:25;;;;;;;87.03;54.28;;;;;;;19.24;71.11;100248.25;4993315;28;119588;-81
2022/06/09 01:58:59;;;;;;;80.90;52.30;;;;;;;19.21;71.01;100238.19;4980477;28;120642;-80
2022/06/09 02:01:31;;;;;;;75.75;51.60;;;;;;;19.20;71.11;100233.16;4996341;27;119642;-79
2022/06/09 02:04:00;;;;;;;84.03;54.33;;;;;;;19.25;71.18;100240.69;4994034;28;119889;-80
2022/06/09 02:06:28;;;;;;;86.07;54.30;;;;;;;19.23;71.24;100232.09;4994771;28;120311;-81
2022/06/09 02:08:54;;;;;;;89.13;57.50;;;;;;;19.25;71.14;100238.66;4994428;28;119461;-80
2022/06/09 02:11:21;;;;;;;86.28;56.25;;;;;;;19.24;71.07;100236.41;4975152;27;119590;-81
2022/06/09 02:13:52;;;;;;;81.47;53.88;;;;;;;19.22;71.18;100234.13;4974536;28;119818;-81
2022/06/09 02:16:21;;;;;;;78.32;55.25;;;;;;;19.22;71.07;100242.47;4986983;28;119693;-79
2022/06/09 02:18:57;;;;;;;92.82;57.13;;;;;;;19.19;71.04;100237.22;4991418;28;120147;-81
2022/06/09 02:21:25;;;;;;;95.22;55.55;;;;;;;19.22;71.43;100236.91;4975220;28;119453;-81
2022/06/09 02:23:52;;;;;;;89.63;55.95;;;;;;;19.22;71.31;100242.47;4995150;28;119420;-81
2022/06/09 02:26:18;;;;;;;78.85;51.00;;;;;;;19.20;71.12;100231.13;4999373;28;121203;-81
2022/06/09 02:28:44;;;;;;;92.18;55.70;;;;;;;19.23;71.05;100232.09;4993864;28;120089;-80
2022/06/09 02:31:10;;;;;;;77.82;50.92;;;;;;;19.15;71.03;100236.72;4981017;28;122209;-82
2022/06/09 02:33:36;;;;;;;71.53;49.35;;;;;;;19.22;71.37;100242.47;4977519;28;119392;-81
2022/06/09 02:36:03;;;;;;;76.93;51.28;;;;;;;19.22;71.17;100247.28;4958110;28;121326;-80
2022/06/09 02:38:28;;;;;;;81.40;51.70;;;;;;;19.19;71.39;100242.78;4983525;28;120131;-79
2022/06/09 02:40:56;;;;;;;81.97;52.92;;;;;;;19.23;71.42;100248.78;4969301;28;120002;-79
2022/06/09 02:43:24;;;;;;;81.18;50.58;;;;;;;19.14;71.17;100235.97;4971526;28;119649;-79
2022/06/09 02:45:53;;;;;;;88.55;54.95;;;;;;;19.22;71.32;100244.50;4960567;28;122301;-81
2022/06/09 02:48:20;;;;;;;81.57;52.22;;;;;;;19.22;71.24;100247.28;4993273;28;119996;-80
2022/06/09 02:50:46;;;;;;;95.53;57.67;;;;;;;19.18;71.36;100239.22;5007221;28;120052;-81
2022/06/09 02:53:13;;;;;;;90.32;55.92;;;;;;;19.19;71.23;100237.22;4995281;28;119677;-81
2022/06/09 02:55:39;;;;;;;88.38;54.30;;;;;;;19.20;71.14;100247.81;4992651;28;119621;-80
2022/06/09 02:58:05;;;;;;;77.90;50.67;;;;;;;19.22;71.49;100250.06;4993638;27;119553;-81
2022/06/09 03:00:31;;;;;;;92.60;54.42;;;;;;;19.21;71.12;100254.88;5011481;28;119628;-81
2022/06/09 03:03:00;;;;;;;78.80;49.70;;;;;;;19.17;71.21;100239.75;5010993;28;120104;-81
2022/06/09 03:05:28;;;;;;;91.45;54.78;;;;;;;19.21;71.13;100248.56;4988122;28;120428;-79
2022/06/09 03:07:54;;;;;;;91.13;55.72;;;;;;;19.22;71.21;100250.06;4992138;28;119899;-79
2022/06/09 03:10:21;;;;;;;91.47;57.83;;;;;;;19.20;71.34;100249.84;4993903;28;119460;-80
2022/06/09 03:12:47;;;;;;;85.68;53.67;;;;;;;19.14;71.48;100241.53;4990671;28;119817;-79
2022/06/09 03:15:15;;;;;;;81.70;53.03;;;;;;;19.21;71.73;100260.44;4975251;28;119426;-81
2022/06/09 03:17:41;;;;;;;77.63;52.25;;;;;;;19.22;71.46;100259.16;4987120;28;120237;-81
2022/06/09 03:20:12;;;;;;;83.70;52.53;;;;;;;19.21;71.52;100254.13;4987951;28;119820;-81
2022/06/09 03:22:38;;;;;;;92.75;57.75;;;;;;;19.21;71.62;100263.22;4971993;28;121233;-81
2022/06/09 03:25:04;;;;;;;90.50;56.75;;;;;;;19.21;71.53;100254.13;4989259;28;121972;-80
2022/06/09 03:27:30;;;;;;;97.28;59.53;;;;;;;19.24;71.25;100259.38;4960136;28;120016;-80
2022/06/09 03:29:55;;;;;;;116.22;66.32;;;;;;;19.20;71.46;100258.19;4970618;28;119990;-79
2022/06/09 03:32:22;;;;;;;105.15;61.42;;;;;;;19.24;71.56;100262.16;4984117;28;120636;-79
2022/06/09 03:34:49;;;;;;;127.78;69.50;;;;;;;19.21;71.46;100256.91;4994775;28;119938;-80
2022/06/09 03:37:15;;;;;;;116.20;66.13;;;;;;;19.23;71.47;100266.22;4977072;28;120157;-81
2022/06/09 03:39:41;;;;;;;112.38;64.60;;;;;;;19.22;71.53;100259.16;4972736;28;119747;-80
2022/06/09 03:42:07;;;;;;;104.93;60.90;;;;;;;19.25;71.50;100260.91;4973065;28;119878;-82
2022/06/09 03:44:33;;;;;;;120.63;64.72;;;;;;;19.24;71.66;100258.63;4975792;28;122212;-80
2022/06/09 03:46:58;;;;;;;97.47;60.10;;;;;;;19.26;71.57;100270.00;4980584;28;119726;-80
2022/06/09 03:49:24;;;;;;;115.55;61.60;;;;;;;19.26;71.75;100267.22;4972291;28;120050;-80
2022/06/09 03:51:50;;;;;;;113.53;65.50;;;;;;;19.24;71.45;100270.50;4971193;28;120287;-80
2022/06/09 03:54:16;;;;;;;94.00;57.17;;;;;;;19.25;71.54;100272.00;4978625;28;119754;-80
2022/06/09 03:56:42;;;;;;;99.25;62.03;;;;;;;19.27;71.52;100282.63;4997084;28;121001;-80
2022/06/09 03:59:12;;;;;;;100.70;59.30;;;;;;;19.27;71.60;100279.84;5003821;28;120104;-80
2022/06/09 04:01:38;;;;;;;101.20;58.78;;;;;;;19.26;71.52;100281.88;5010583;28;119685;-80
2022/06/09 04:04:04;;;;;;;117.90;66.43;;;;;;;19.27;71.52;100280.59;5011319;28;120137;-80
2022/06/09 04:06:30;;;;;;;113.15;66.35;;;;;;;19.23;71.72;100280.13;4977666;28;119928;-80
2022/06/09 04:08:56;;;;;;;115.53;65.43;;;;;;;19.28;71.64;100286.91;4972384;28;119940;-80
2022/06/09 04:11:22;;;;;;;109.43;65.22;;;;;;;19.26;71.71;100289.44;4987546;28;120078;-81
2022/06/09 04:13:49;;;;;;;100.63;60.72;;;;;;;19.20;71.66;100274.84;4985160;28;119815;-80
2022/06/09 04:16:35;;;;;;;107.32;62.78;;;;;;;19.31;71.49;100294.19;4992472;28;119709;-79
2022/06/09 04:19:04;;;;;;;117.47;62.92;;;;;;;19.31;71.57;100294.19;4972009;28;119511;-80
2022/06/09 04:21:32;;;;;;;107.45;64.03;;;;;;;19.26;71.72;100287.41;4971593;28;119668;-80
2022/06/09 04:23:58;;;;;;;114.38;65.68;;;;;;;19.23;71.54;100282.91;4990069;28;122307;-81
2022/06/09 04:26:28;;;;;;;107.40;61.60;;;;;;;19.32;71.86;100290.91;4990573;28;119622;-80
2022/06/09 04:28:54;;;;;;;114.25;63.03;;;;;;;19.29;71.77;100293.97;4992239;28;119750;-79
2022/06/09 04:31:20;;;;;;;113.55;65.03;;;;;;;19.33;71.81;100300.75;4988012;28;120542;-81
2022/06/09 04:33:46;;;;;;;123.50;69.45;;;;;;;19.33;71.74;100308.34;4974192;28;119844;-81
2022/06/09 04:36:13;;;;;;;112.82;65.68;;;;;;;19.36;72.10;100300.97;4972345;28;119839;-79
2022/06/09 04:38:39;;;;;;;106.95;63.50;;;;;;;19.34;71.84;100309.84;4974051;28;119692;-80
2022/06/09 04:41:09;;;;;;;96.07;58.35;;;;;;;19.37;72.04;100313.59;4970335;28;120107;-81
2022/06/09 04:43:40;;;;;;;124.72;68.45;;;;;;;19.38;71.74;100320.69;4953424;28;119805;-80
2022/06/09 04:46:07;;;;;;;110.03;60.80;;;;;;;19.38;71.86;100318.66;4971757;28;119638;-80
2022/06/09 04:48:36;;;;;;;107.95;60.63;;;;;;;19.39;71.74;100316.63;4977636;28;119574;-80
2022/06/09 04:51:05;;;;;;;98.15;57.72;;;;;;;19.32;71.84;100304.81;4981472;28;120263;-81
2022/06/09 04:53:30;;;;;;;108.90;64.63;;;;;;;19.42;71.88;100321.16;4996220;28;120076;-80
2022/06/09 04:55:56;;;;;;;122.45;65.78;;;;;;;19.40;71.86;100320.91;4986870;28;119750;-81
2022/06/09 04:58:23;;;;;;;101.63;60.92;;;;;;;19.44;71.76;100316.59;4973642;28;119944;-79
2022/06/09 05:00:48;;;;;;;92.82;55.47;;;;;;;19.37;71.86;100308.03;5016385;28;119844;-79
2022/06/09 05:03:14;;;;;;;100.55;54.90;;;;;;;19.47;71.61;100325.91;4994743;27;119739;-80
2022/06/09 05:05:45;;;;;;;95.43;54.92;;;;;;;19.48;72.03;100322.59;4988013;28;119947;-80
2022/06/09 05:08:12;;;;;;;96.68;54.67;;;;;;;19.51;71.84;100320.81;4974124;28;119537;-81
2022/06/09 05:10:39;;;;;;;89.10;52.22;;;;;;;19.51;71.88;100324.34;4980148;28;120146;-79
2022/06/09 05:13:06;;;;;;;80.63;49.83;;;;;;;19.53;71.84;100330.16;4990714;28;119764;-81
2022/06/09 05:15:35;;;;;;;79.72;51.38;;;;;;;19.55;71.90;100330.41;4975678;28;119975;-81
2022/06/09 05:18:01;;;;;;;80.78;48.08;;;;;;;19.57;71.89;100333.41;4974872;28;121424;-81
2022/06/09 05:20:27;;;;;;;81.20;49.42;;;;;;;19.59;71.75;100335.66;4958653;28;119890;-82
2022/06/09 05:22:53;;;;;;;91.43;51.63;;;;;;;19.58;71.84;100326.56;4994993;28;120082;-81
2022/06/09 05:25:20;;;;;;;70.97;45.88;;;;;;;19.62;71.71;100338.16;4986698;28;119726;-81
2022/06/09 05:27:46;;;;;;;81.10;49.90;;;;;;;19.64;71.87;100343.22;4975717;28;120002;-81
2022/06/09 05:30:16;;;;;;;69.68;44.72;;;;;;;19.67;71.72;100341.44;4974816;28;119825;-80
2022/06/09 05:32:42;;;;;;;62.63;42.58;;;;;;;19.70;72.02;100348.72;4990596;28;119831;-79
2022/06/09 05:35:09;;;;;;;66.95;42.90;;;;;;;19.71;71.87;100339.09;4980463;28;120308;-80
2022/06/09 05:45:49;;;;;;;53.03;34.45;;;;;;;19.74;71.32;100340.84;4976719;28;119518;-82
2022/06/09 05:48:15;;;;;;;52.67;35.92;;;;;;;19.79;71.60;100346.34;4999008;28;119710;-81
2022/06/09 05:50:41;;;;;;;50.05;34.13;;;;;;;19.81;71.71;100349.34;4998555;28;120703;-81
2022/06/09 05:53:07;;;;;;;43.35;30.33;;;;;;;19.85;71.64;100352.59;4993601;28;119640;-80
2022/06/09 05:55:32;;;;;;;49.15;32.17;;;;;;;19.88;71.63;100361.94;4995450;28;119727;-81
2022/06/09 05:57:58;;;;;;;41.80;29.80;;;;;;;19.91;71.40;100360.91;4989005;28;121383;-81
2022/06/09 06:00:24;;;;;;;43.20;30.13;;;;;;;19.89;71.29;100355.09;5005601;28;120199;-81
2022/06/09 06:02:50;;;;;;;43.63;28.88;;;;;;;19.90;71.29;100362.19;4960865;28;120904;-81
2022/06/09 06:08:00;;;;;;;37.60;25.60;;;;;;;19.92;71.10;100379.09;4976512;28;119539;-80
2022/06/09 06:10:26;;;;;;;34.33;22.52;;;;;;;19.89;70.72;100374.59;4979610;28;120204;-80
2022/06/09 06:12:52;;;;;;;32.70;23.33;;;;;;;19.88;70.77;100381.44;4992360;28;119818;-81
2022/06/09 06:15:18;;;;;;;29.85;22.00;;;;;;;19.81;70.85;100379.97;4972747;28;121215;-80
2022/06/09 06:17:44;;;;;;;30.40;21.88;;;;;;;19.76;70.91;100378.00;4975228;28;123790;-80
2022/06/09 06:20:10;;;;;;;32.42;21.05;;;;;;;19.76;70.99;100383.56;4984149;27;119841;-82
2022/06/09 06:22:38;;;;;;;28.98;21.20;;;;;;;19.82;70.70;100389.81;4985181;28;119765;-81
2022/06/09 06:25:06;;;;;;;28.83;21.55;;;;;;;19.76;70.59;100396.72;4977344;28;120623;-82
2022/06/09 06:27:31;;;;;;;31.30;22.25;;;;;;;19.76;70.75;100397.47;4999889;28;119672;-81
2022/06/09 06:29:57;;;;;;;32.15;21.17;;;;;;;19.76;70.60;100403.03;4994055;28;119721;-81
2022/06/09 06:32:23;;;;;;;33.55;22.23;;;;;;;19.70;70.75;100398.81;4984238;28;119632;-81
2022/06/09 06:34:49;;;;;;;30.13;22.42;;;;;;;19.66;70.93;100395.56;4981972;28;120165;-79
2022/06/09 06:37:14;;;;;;;28.42;21.20;;;;;;;19.72;70.88;100413.72;4989875;28;120546;-81
2022/06/09 06:39:40;;;;;;;33.97;23.50;;;;;;;19.68;70.93;100415.28;4980763;28;119789;-81
2022/06/09 06:42:06;;;;;;;32.13;23.45;;;;;;;19.66;71.16;100415.78;4987011;28;120029;-81
2022/06/09 06:44:35;;;;;;;32.75;23.77;;;;;;;19.68;71.11;100423.63;4984600;28;120655;-81
2022/06/09 06:47:01;;;;;;;34.58;25.10;;;;;;;19.64;70.77;100418.34;4986829;27;119820;-80
2022/06/09 06:49:27;;;;;;;32.10;24.90;;;;;;;19.68;71.29;100420.84;4996337;28;122056;-81
2022/06/09 06:51:53;;;;;;;33.35;24.17;;;;;;;19.66;71.35;100424.16;4986532;28;119894;-81
2022/06/09 06:54:18;;;;;;;37.33;24.95;;;;;;;19.65;71.80;100413.53;4990543;28;119797;-80
2022/06/09 06:56:44;;;;;;;38.20;25.02;;;;;;;19.78;71.69;100430.34;4984805;28;121294;-81
2022/06/09 06:59:10;;;;;;;33.22;24.85;;;;;;;19.83;71.33;100437.88;4971024;28;119789;-81
2022/06/09 07:01:36;;;;;;;33.15;24.33;;;;;;;19.85;71.34;100436.09;4978886;28;120045;-81
2022/06/09 07:04:03;;;;;;;32.78;23.48;;;;;;;19.86;71.25;100440.38;4983691;28;122051;-80
2022/06/09 07:06:29;;;;;;;35.90;24.58;;;;;;;19.86;71.19;100439.63;4984917;28;120129;-80
2022/06/09 07:08:54;;;;;;;33.40;23.40;;;;;;;19.86;71.23;100439.63;4965881;28;120576;-81
2022/06/09 07:11:20;;;;;;;31.05;21.75;;;;;;;19.92;71.27;100440.34;4984871;28;119925;-80
2022/06/09 07:13:47;;;;;;;25.50;18.25;;;;;;;19.92;71.46;100443.88;4984436;28;121055;-80
2022/06/09 07:16:13;;;;;;;26.08;18.85;;;;;;;20.00;71.12;100457.22;4984748;28;119722;-81
2022/06/09 07:18:39;;;;;;;24.95;18.27;;;;;;;19.96;70.98;100443.59;4985185;28;119591;-80
2022/06/09 07:21:07;;;;;;;24.50;18.58;;;;;;;20.04;70.97;100457.69;4983203;28;120178;-81
2022/06/09 07:23:33;;;;;;;23.45;17.80;;;;;;;20.02;70.91;100449.84;4984672;28;120099;-80
2022/06/09 07:25:59;;;;;;;20.08;17.15;;;;;;;20.10;70.78;100461.91;4968210;28;120373;-80
2022/06/09 07:28:26;;;;;;;24.63;18.20;;;;;;;20.13;70.64;100460.13;4986524;28;119756;-80
2022/06/09 07:30:59;;;;;;;11.75;6.65;;;;;;;20.11;70.39;100474.56;4988342;28;120115;-81
2022/06/09 07:33:29;;;;;;;5.10;2.77;;;;;;;20.02;69.80;100463.00;4986420;28;120044;-79
2022/06/09 07:35:56;;;;;;;3.53;3.00;;;;;;;19.95;69.72;100469.91;4979532;28;119856;-80
2022/06/09 07:38:23;;;;;;;4.07;3.67;;;;;;;19.90;69.75;100473.50;4982090;28;119747;-80
2022/06/09 07:40:52;;;;;;;3.72;3.38;;;;;;;19.86;70.08;100482.13;4982010;28;119850;-81
2022/06/09 07:43:19;;;;;;;4.93;2.58;;;;;;;19.78;70.19;100464.50;4987562;28;119737;-80
2022/06/09 07:45:47;;;;;;;2.33;1.70;;;;;;;19.80;70.22;100484.22;4985490;28;120182;-80
2022/06/09 07:48:13;;;;;;;3.08;2.00;;;;;;;19.74;69.92;100482.75;4969902;28;119580;-81
2022/06/09 07:50:39;;;;;;;2.40;1.80;;;;;;;19.72;70.26;100486.06;4981975;28;120252;-81
2022/06/09 07:53:06;;;;;;;3.58;1.90;;;;;;;19.78;70.12;100491.56;4988821;28;119894;-81
2022/06/09 07:55:32;;;;;;;2.05;1.50;;;;;;;19.77;70.42;100506.75;4983024;28;122146;-81
2022/06/09 07:57:58;;;;;;;3.08;1.63;;;;;;;19.80;69.85;100511.28;4982893;28;119878;-81
2022/06/09 08:00:25;;;;;;;5.13;1.63;;;;;;;19.80;70.10;100508.50;4995936;28;119888;-80
2022/06/09 08:02:51;;;;;;;2.63;2.03;;;;;;;19.83;69.83;100504.69;4981110;28;120172;-81
2022/06/09 08:05:21;;;;;;;4.88;2.55;;;;;;;19.82;70.12;100509.50;4985090;28;119722;-82
2022/06/09 08:07:47;;;;;;;2.65;2.17;;;;;;;19.83;70.32;100515.81;4987492;28;119712;-80
2022/06/09 08:10:21;;;;;;;4.22;2.20;;;;;;;19.75;70.29;100498.19;4982827;28;123238;-80
2022/06/09 08:12:50;;;;;;;4.45;2.45;;;;;;;19.89;70.34;100519.31;4985597;28;119703;-81
2022/06/09 08:15:16;;;;;;;3.17;2.10;;;;;;;19.89;70.16;100520.06;4998457;28;120254;-81
2022/06/09 08:17:42;;;;;;;5.97;2.20;;;;;;;19.86;70.14;100509.22;4982096;28;118855;-81
2022/06/09 08:20:09;;;;;;;3.08;2.25;;;;;;;19.93;70.05;100525.34;4980664;28;119986;-81
2022/06/09 08:22:40;;;;;;;3.53;2.15;;;;;;;19.92;69.92;100529.41;4983864;28;121177;-79
2022/06/09 08:25:08;;;;;;;4.07;2.10;;;;;;;19.94;70.15;100526.88;4985030;28;119778;-81
2022/06/09 08:27:35;;;;;;;4.25;2.30;;;;;;;19.95;70.19;100528.38;4987139;28;119843;-80
2022/06/09 08:30:01;;;;;;;2.67;2.47;;;;;;;19.94;70.43;100529.66;4988326;28;120539;-80
2022/06/09 08:32:26;;;;;;;2.35;1.95;;;;;;;19.96;69.89;100529.13;4982639;28;120030;-81
2022/06/09 08:34:52;;;;;;;2.63;2.30;;;;;;;20.00;69.80;100541.47;4987895;28;119779;-80
2022/06/09 08:37:18;;;;;;;3.88;2.20;;;;;;;19.92;69.40;100530.16;4991742;28;119778;-81
2022/06/09 08:39:44;;;;;;;4.72;2.50;;;;;;;19.97;69.72;100548.09;4985425;28;120084;-81
2022/06/09 08:42:24;;;;;;;3.30;2.72;;;;;;;19.93;69.46;100553.19;4981890;28;120975;-81
2022/06/09 08:45:02;;;;;;;5.47;2.65;;;;;;;19.90;69.62;100555.00;4986076;28;119714;-81
2022/06/09 08:47:48;;;;;;;4.78;2.40;;;;;;;19.90;69.87;100566.13;4988902;28;120226;-82
2022/06/09 08:50:28;;;;;;;3.75;2.58;;;;;;;19.89;69.56;100558.28;4983522;28;119683;-80
2022/06/09 08:53:21;;;;;;;3.45;2.50;;;;;;;19.92;69.65;100562.81;4980959;28;119819;-79
2022/06/09 08:55:53;;;;;;;5.60;2.40;;;;;;;19.95;69.81;100570.13;4986605;28;119710;-80
2022/06/09 08:58:19;;;;;;;4.00;2.38;;;;;;;19.94;69.87;100568.63;4982579;28;119990;-80
2022/06/09 09:00:50;;;;;;;3.72;2.40;;;;;;;19.98;69.35;100566.31;4993773;28;120308;-81
2022/06/09 09:03:23;;;;;;;3.03;2.10;;;;;;;20.00;69.44;100569.31;4992470;28;120014;-81
2022/06/09 09:06:04;;;;;;;4.63;2.60;;;;;;;20.06;70.05;100570.03;4991720;28;119954;-79
2022/06/09 09:08:30;;;;;;;5.50;2.55;;;;;;;20.18;70.07;100574.25;4986781;28;120158;-81
2022/06/09 09:11:38;;;;;;;4.60;2.38;;;;;;;20.26;69.52;100579.22;4973436;28;120408;-82
2022/06/09 09:14:14;;;;;;;4.53;2.20;;;;;;;20.28;69.48;100573.91;4954288;28;120060;-80
2022/06/09 09:17:00;;;;;;;3.80;2.03;;;;;;;20.33;69.27;100581.44;4987990;28;119909;-80
2022/06/09 09:19:43;;;;;;;3.53;2.17;;;;;;;20.35;69.09;100587.28;4981135;28;120274;-79
2022/06/09 09:22:36;;;;;;;4.07;2.10;;;;;;;20.33;68.94;100595.38;4984725;28;119957;-81
2022/06/09 09:25:08;;;;;;;3.38;2.42;;;;;;;20.32;68.89;100591.06;4994450;28;120077;-80
2022/06/09 09:27:48;;;;;;;3.75;2.47;;;;;;;20.32;68.64;100588.28;4991644;28;120492;-82
2022/06/09 09:30:48;;;;;;;3.90;2.58;;;;;;;20.36;68.68;100594.34;4987313;28;119846;-82
2022/06/09 09:33:18;;;;;;;2.85;2.45;;;;;;;20.36;68.84;100594.34;4994010;28;121068;-80
2022/06/09 09:35:47;;;;;;;4.38;2.60;;;;;;;20.33;68.27;100595.38;4990256;28;120721;-81
2022/06/09 09:38:17;;;;;;;4.38;2.60;;;;;;;20.30;68.37;100599.19;4980276;28;120208;-80
2022/06/09 09:40:48;;;;;;;3.28;2.65;;;;;;;20.33;68.10;100610.03;4992675;28;119909;-81
2022/06/09 09:43:23;;;;;;;4.72;2.65;;;;;;;20.31;68.38;100615.38;4994481;28;120496;-82
2022/06/09 09:45:53;;;;;;;3.08;2.30;;;;;;;20.23;68.36;100601.28;4990631;28;120844;-81
2022/06/09 09:48:21;;;;;;;3.72;2.00;;;;;;;20.32;68.36;100618.94;4985436;28;120252;-79
2022/06/09 09:51:03;;;;;;;4.00;2.20;;;;;;;20.32;68.27;100611.31;4984311;28;120266;-80
2022/06/09 09:53:38;;;;;;;4.30;2.30;;;;;;;20.35;68.68;100631.84;4972629;28;122087;-79
2022/06/09 09:56:16;;;;;;;6.68;2.78;;;;;;;20.39;68.52;100633.06;4978495;28;120156;-79
2022/06/09 09:58:48;;;;;;;4.88;2.42;;;;;;;20.40;68.13;100629.03;4975744;28;120748;-80
2022/06/09 10:01:17;;;;;;;5.25;2.67;;;;;;;20.39;68.13;100630.28;4980043;28;120203;-80
2022/06/09 10:08:35;;;;;;;3.78;2.53;;;;;;;20.34;68.22;100638.66;4983011;28;119781;-81
2022/06/09 10:09:26;;;;;;;3.17;2.75;;;;;;;20.27;67.98;100642.00;4992055;28;120761;-80
2022/06/09 10:11:55;;;;;;;5.65;3.30;;;;;;;20.29;68.01;100651.34;4993381;28;120140;-80
2022/06/09 10:14:39;;;;;;;5.75;3.40;;;;;;;20.30;68.55;100652.13;4981413;28;120673;-80
2022/06/09 10:17:23;;;;;;;3.65;3.30;;;;;;;20.32;68.69;100652.34;4989053;28;119892;-81
2022/06/09 10:20:16;;;;;;;;;;;;;;;20.34;68.30;100655.38;4985777;28;120517;-81
2022/06/09 10:22:56;;;;;;;4.10;3.30;;;;;;;20.39;68.14;100646.22;4981687;28;122258;-80
2022/06/09 10:25:30;;;;;;;4.57;3.70;;;;;;;20.45;68.23;100653.28;4988140;28;119898;-80
2022/06/09 10:28:04;;;;;;;9.80;4.22;;;;;;;20.39;67.95;100660.91;4983856;28;120362;-81
2022/06/09 10:30:39;;;;;;;6.15;4.05;;;;;;;20.37;67.73;100669.03;4982938;28;120478;-80
2022/06/09 10:33:20;;;;;;;9.95;4.78;;;;;;;20.29;67.43;100673.63;4987297;28;121030;-79
2022/06/09 10:36:12;;;;;;;6.05;5.13;;;;;;;20.23;68.00;100672.94;4966685;28;120327;-80
2022/06/09 10:38:48;;;;;;;7.10;5.13;;;;;;;20.24;67.70;100688.38;4986563;28;119954;-80
2022/06/09 10:41:31;;;;;;;7.65;5.10;;;;;;;20.15;68.24;100678.31;4970219;28;120387;-80
2022/06/09 10:44:04;;;;;;;5.35;4.72;;;;;;;20.14;67.75;100676.06;4982375;28;120369;-80
2022/06/09 10:55:14;;;;;;;6.07;4.93;;;;;;;20.23;67.90;100698.75;4985533;28;120457;-80
2022/06/09 10:56:16;;;;;;;6.25;4.18;;;;;;;20.30;67.64;100705.03;4961129;28;120327;-79
2022/06/09 10:58:50;;;;;;;6.05;3.95;;;;;;;20.32;67.45;100706.03;4982194;28;120640;-79
2022/06/09 11:01:26;;;;;;;8.98;4.38;;;;;;;20.30;67.66;100705.78;4987954;28;120295;-80
2022/06/09 11:03:52;;;;;;;5.05;4.13;;;;;;;20.30;67.57;100713.38;4989566;28;119196;-79
2022/06/09 11:06:32;;;;;;;6.75;4.70;;;;;;;20.31;67.69;100710.09;4994006;28;121074;-79
2022/06/09 11:09:10;;;;;;;5.45;4.47;;;;;;;20.32;67.62;100717.16;4990958;28;120083;-80
2022/06/09 11:11:45;;;;;;;5.30;4.80;;;;;;;20.35;67.77;100723.75;4991911;28;119920;-78
2022/06/09 11:14:38;;;;;;;6.30;4.47;;;;;;;20.38;67.61;100720.69;4986077;28;120412;-78
2022/06/09 11:17:32;;;;;;;4.40;3.60;;;;;;;20.39;67.52;100722.19;4990646;28;120443;-78
2022/06/09 11:20:20;;;;;;;4.72;2.75;;;;;;;20.39;67.17;100729.81;4994263;28;120478;-79
2022/06/09 11:23:09;;;;;;;4.35;2.83;;;;;;;20.34;67.63;100725.00;4998006;28;120782;-79
2022/06/09 11:26:17;;;;;;;3.00;2.70;;;;;;;20.41;67.98;100730.81;4977571;28;120908;-79
2022/06/09 11:29:10;;;;;;;5.70;2.88;;;;;;;20.46;67.73;100743.19;4980176;28;119865;-80
2022/06/09 11:31:45;;;;;;;4.30;2.77;;;;;;;20.52;67.88;100741.13;4990567;28;120481;-80
2022/06/09 11:34:49;;;;;;;3.08;2.55;;;;;;;20.58;67.64;100739.03;4986472;28;120128;-80
2022/06/09 11:37:48;;;;;;;4.93;2.17;;;;;;;20.59;67.39;100739.81;4992189;28;120484;-79
2022/06/09 11:40:32;;;;;;;4.53;2.40;;;;;;;20.68;67.33;100754.19;4957657;28;120934;-79
2022/06/09 11:43:16;;;;;;;3.50;1.98;;;;;;;20.71;67.26;100757.94;4975599;28;119960;-79